createdAt,value
2023-09-16T00:02:06.698Z,14.63
2023-09-16T00:04:33.212Z,14.86
2023-09-16T00:07:00.342Z,14.85
2023-09-16T00:09:26.826Z,14.69
2023-09-16T00:11:53.452Z,14.74
2023-09-16T00:14:20.495Z,14.84
2023-09-16T00:16:47.101Z,14.82
2023-09-16T00:19:13.893Z,14.60
2023-09-16T00:21:41.537Z,14.78
2023-09-16T00:24:11.135Z,14.52
2023-09-16T00:26:37.593Z,14.34
2023-09-16T00:29:04.078Z,14.65
2023-09-16T00:31:30.584Z,14.70
2023-09-16T00:33:57.175Z,14.58
2023-09-16T00:36:23.839Z,14.67
2023-09-16T00:38:50.613Z,14.41
2023-09-16T00:41:17.386Z,14.38
2023-09-16T00:43:43.868Z,14.59
2023-09-16T00:46:10.614Z,14.20
2023-09-16T00:48:40.704Z,14.60
2023-09-16T00:51:07.910Z,14.60
2023-09-16T00:53:34.876Z,14.29
2023-09-16T00:56:01.634Z,14.18
2023-09-16T00:58:28.180Z,14.21
2023-09-16T01:00:54.837Z,14.35
2023-09-16T01:03:21.814Z,14.52
2023-09-16T01:05:48.838Z,14.19
2023-09-16T01:08:16.517Z,14.31
2023-09-16T01:10:43.615Z,14.38
2023-09-16T01:13:10.994Z,14.22
2023-09-16T01:15:46.327Z,14.48
2023-09-16T01:18:20.673Z,14.49
2023-09-16T01:20:49.337Z,14.45
2023-09-16T01:23:21.470Z,14.23
2023-09-16T01:25:48.059Z,14.48
2023-09-16T01:28:15.393Z,14.45
2023-09-16T01:30:49.688Z,14.27
2023-09-16T01:33:37.222Z,14.23
2023-09-16T01:36:08.715Z,14.48
2023-09-16T01:38:38.351Z,14.33
2023-09-16T01:41:06.466Z,14.47
2023-09-16T01:43:33.363Z,14.38
2023-09-16T01:45:59.881Z,14.45
2023-09-16T01:48:36.455Z,14.11
2023-09-16T01:51:11.338Z,14.13
2023-09-16T01:53:37.767Z,14.42
2023-09-16T01:56:04.275Z,14.42
2023-09-16T01:58:30.850Z,14.43
2023-09-16T02:00:57.299Z,14.38
2023-09-16T02:03:23.884Z,14.30
2023-09-16T02:05:51.043Z,14.45
2023-09-16T02:08:17.482Z,14.47
2023-09-16T02:10:43.984Z,14.49
2023-09-16T02:13:10.914Z,14.49
2023-09-16T02:15:37.558Z,14.50
2023-09-16T02:18:04.420Z,14.29
2023-09-16T02:20:30.961Z,14.51
2023-09-16T02:22:57.538Z,14.51
2023-09-16T02:25:23.972Z,14.51
2023-09-16T02:27:50.613Z,14.51
2023-09-16T02:30:17.267Z,14.25
2023-09-16T02:32:49.755Z,14.48
2023-09-16T02:35:17.412Z,14.52
2023-09-16T02:37:43.883Z,14.50
2023-09-16T02:40:10.768Z,14.53
2023-09-16T02:42:37.233Z,14.51
2023-09-16T02:45:04.590Z,14.51
2023-09-16T02:47:33.051Z,14.50
2023-09-16T02:50:01.584Z,14.46
2023-09-16T02:52:28.293Z,14.07
2023-09-16T02:54:54.822Z,14.25
2023-09-16T02:57:21.594Z,14.46
2023-09-16T02:59:48.042Z,14.45
2023-09-16T03:02:14.499Z,14.47
2023-09-16T03:04:41.060Z,14.28
2023-09-16T03:07:07.599Z,14.47
2023-09-16T03:09:34.112Z,13.93
2023-09-16T03:12:00.595Z,14.48
2023-09-16T03:14:27.148Z,14.43
2023-09-16T03:16:53.824Z,14.22
2023-09-16T03:19:20.549Z,14.41
2023-09-16T03:21:47.199Z,14.53
2023-09-16T03:24:13.706Z,14.53
2023-09-16T03:26:40.365Z,14.53
2023-09-16T03:29:06.988Z,14.54
2023-09-16T03:31:33.449Z,14.51
2023-09-16T03:33:59.976Z,14.57
2023-09-16T03:36:27.027Z,14.51
2023-09-16T03:38:53.605Z,14.59
2023-09-16T03:41:20.540Z,14.60
2023-09-16T03:43:49.956Z,14.64
2023-09-16T03:46:17.104Z,14.66
2023-09-16T03:48:43.810Z,14.72
2023-09-16T03:51:10.662Z,14.76
2023-09-16T03:53:55.655Z,14.81
2023-09-16T03:56:22.187Z,14.84
2023-09-16T03:58:48.949Z,14.38
2023-09-16T04:01:15.933Z,14.57
2023-09-16T04:03:43.834Z,14.61
2023-09-16T04:06:10.465Z,14.85
2023-09-16T04:08:42.494Z,14.85
2023-09-16T04:11:10.815Z,14.82
2023-09-16T04:13:37.950Z,14.80
2023-09-16T04:16:04.664Z,14.59
2023-09-16T04:18:32.203Z,15.17
2023-09-16T04:20:58.785Z,15.19
2023-09-16T04:23:26.114Z,15.24
2023-09-16T04:25:59.192Z,15.19
2023-09-16T04:28:25.927Z,15.28
2023-09-16T04:30:53.506Z,15.24
2023-09-16T04:33:24.349Z,15.27
2023-09-16T04:35:52.183Z,15.28
2023-09-16T04:38:19.740Z,15.25
2023-09-16T04:40:47.958Z,15.19
2023-09-16T04:43:14.681Z,15.04
2023-09-16T04:45:45.989Z,15.06
2023-09-16T04:48:14.596Z,15.12
2023-09-16T04:50:46.889Z,15.22
2023-09-16T04:53:13.623Z,14.98
2023-09-16T04:55:42.431Z,15.19
2023-09-16T04:58:09.533Z,15.13
2023-09-16T05:00:36.600Z,15.03
2023-09-16T05:03:03.837Z,14.92
2023-09-16T05:05:30.704Z,14.93
2023-09-16T05:07:57.280Z,14.70
2023-09-16T05:10:23.903Z,15.17
2023-09-16T05:12:50.663Z,15.16
2023-09-16T05:15:17.270Z,15.16
2023-09-16T05:17:43.796Z,14.93
2023-09-16T05:20:10.875Z,15.18
2023-09-16T05:22:39.562Z,15.19
2023-09-16T05:25:06.877Z,15.20
2023-09-16T05:27:33.666Z,15.13
2023-09-16T05:30:02.947Z,15.11
2023-09-16T05:32:32.796Z,15.25
2023-09-16T05:34:59.798Z,15.27
2023-09-16T05:37:26.209Z,15.28
2023-09-16T05:39:52.728Z,15.29
2023-09-16T05:42:19.256Z,15.28
2023-09-16T05:44:45.707Z,15.29
2023-09-16T05:47:12.504Z,15.19
2023-09-16T05:49:39.118Z,15.38
2023-09-16T05:52:06.006Z,15.37
2023-09-16T05:54:32.574Z,15.43
2023-09-16T05:56:59.191Z,15.46
2023-09-16T05:59:25.798Z,15.12
2023-09-16T06:01:52.293Z,15.51
2023-09-16T06:04:18.884Z,15.34
2023-09-16T06:06:47.845Z,15.61
2023-09-16T06:09:14.352Z,15.65
2023-09-16T06:11:40.793Z,15.69
2023-09-16T06:14:07.672Z,15.74
2023-09-16T06:16:37.431Z,15.59
2023-09-16T06:19:04.233Z,15.77
2023-09-16T06:21:31.590Z,15.86
2023-09-16T06:23:58.977Z,15.95
2023-09-16T06:26:25.785Z,15.89
2023-09-16T06:28:52.275Z,16.13
2023-09-16T06:31:18.790Z,16.17
2023-09-16T06:33:45.359Z,16.26
2023-09-16T06:36:11.931Z,16.47
2023-09-16T06:38:38.383Z,16.62
2023-09-16T06:41:04.909Z,16.74
2023-09-16T06:43:31.414Z,17.03
2023-09-16T06:45:57.953Z,16.87
2023-09-16T06:48:24.574Z,17.31
2023-09-16T06:50:52.046Z,17.51
2023-09-16T06:53:18.804Z,17.89
2023-09-16T06:55:45.293Z,17.86
2023-09-16T06:58:11.860Z,17.97
2023-09-16T07:00:38.568Z,18.07
2023-09-16T07:03:06.680Z,18.31
2023-09-16T07:05:34.069Z,18.14
2023-09-16T07:08:00.694Z,18.54
2023-09-16T07:10:27.237Z,18.42
2023-09-16T07:13:03.069Z,18.62
2023-09-16T07:15:29.527Z,18.90
2023-09-16T07:17:55.974Z,19.09
2023-09-16T07:20:24.070Z,19.14
2023-09-16T07:22:52.464Z,19.50
2023-09-16T07:25:19.097Z,19.63
2023-09-16T07:27:45.624Z,19.49
2023-09-16T07:30:12.352Z,19.55
2023-09-16T07:32:39.146Z,19.59
2023-09-16T07:35:05.841Z,19.42
2023-09-16T07:37:32.319Z,19.67
2023-09-16T07:39:58.867Z,19.47
2023-09-16T07:42:25.638Z,19.72
2023-09-16T07:44:52.362Z,19.68
2023-09-16T07:47:18.823Z,19.59
2023-09-16T07:49:45.301Z,19.52
2023-09-16T07:52:11.789Z,19.95
2023-09-16T07:54:38.257Z,19.89
2023-09-16T07:57:05.047Z,20.11
2023-09-16T07:59:31.508Z,20.27
2023-09-16T08:01:58.161Z,20.25
2023-09-16T08:04:24.732Z,20.53
2023-09-16T08:06:51.634Z,20.64
2023-09-16T08:09:18.512Z,20.75
2023-09-16T08:11:45.068Z,20.87
2023-09-16T08:14:11.686Z,20.98
2023-09-16T08:16:38.250Z,21.09
2023-09-16T08:19:08.165Z,20.89
2023-09-16T08:21:35.648Z,21.34
2023-09-16T08:24:02.169Z,21.30
2023-09-16T08:26:30.152Z,21.34
2023-09-16T08:28:56.813Z,21.63
2023-09-16T08:31:23.415Z,21.64
2023-09-16T08:33:51.757Z,21.85
2023-09-16T08:36:18.482Z,21.97
2023-09-16T08:38:44.989Z,22.12
2023-09-16T08:41:38.989Z,22.34
2023-09-16T08:44:06.829Z,22.38
2023-09-16T08:46:35.631Z,22.49
2023-09-16T08:49:07.551Z,22.48
2023-09-16T08:51:40.606Z,22.61
2023-09-16T08:54:09.901Z,22.88
2023-09-16T08:56:38.021Z,23.04
2023-09-16T08:59:04.567Z,23.07
2023-09-16T09:01:31.600Z,23.23
2023-09-16T09:03:59.792Z,23.34
2023-09-16T09:06:40.109Z,23.52
2023-09-16T09:09:07.240Z,23.64
2023-09-16T09:11:34.696Z,23.79
2023-09-16T09:14:02.369Z,23.92
2023-09-16T09:16:31.334Z,23.98
2023-09-16T09:18:58.423Z,23.69
2023-09-16T09:21:25.844Z,24.24
2023-09-16T09:23:52.487Z,24.30
2023-09-16T09:26:18.950Z,24.35
2023-09-16T09:28:49.224Z,24.57
2023-09-16T09:31:16.735Z,24.73
2023-09-16T09:33:43.476Z,24.71
2023-09-16T09:36:12.698Z,25.08
2023-09-16T09:38:41.077Z,25.48
2023-09-16T09:41:07.841Z,25.45
2023-09-16T09:43:34.498Z,25.63
2023-09-16T09:46:01.159Z,25.91
2023-09-16T09:48:27.911Z,26.09
2023-09-16T09:50:54.577Z,26.33
2023-09-16T09:53:23.884Z,26.00
2023-09-16T09:55:51.142Z,26.83
2023-09-16T09:58:21.126Z,26.99
2023-09-16T10:00:54.565Z,27.24
2023-09-16T10:03:24.003Z,27.25
2023-09-16T10:05:51.607Z,27.43
2023-09-16T10:08:18.164Z,27.47
2023-09-16T10:10:47.885Z,27.59
2023-09-16T10:13:15.708Z,28.00
2023-09-16T10:15:42.443Z,27.63
2023-09-16T10:18:09.191Z,27.70
2023-09-16T10:20:39.565Z,27.74
2023-09-16T10:23:06.749Z,27.81
2023-09-16T10:25:36.102Z,27.95
2023-09-16T10:28:07.539Z,27.95
2023-09-16T10:30:36.027Z,28.19
2023-09-16T10:33:11.974Z,28.40
2023-09-16T10:35:41.857Z,28.11
2023-09-16T10:38:11.409Z,28.65
2023-09-16T10:40:41.444Z,29.17
2023-09-16T10:43:08.112Z,28.99
2023-09-16T10:45:35.171Z,29.19
2023-09-16T10:48:03.054Z,28.82
2023-09-16T10:50:35.902Z,29.38
2023-09-16T10:53:06.824Z,29.30
2023-09-16T10:55:46.046Z,29.72
2023-09-16T10:58:39.848Z,30.02
2023-09-16T11:01:09.367Z,29.90
2023-09-16T11:03:41.489Z,29.86
2023-09-16T11:06:08.398Z,29.80
2023-09-16T11:08:35.137Z,29.80
2023-09-16T11:11:01.826Z,29.54
2023-09-16T11:13:31.228Z,29.67
2023-09-16T11:16:01.955Z,29.89
2023-09-16T11:18:30.824Z,29.85
2023-09-16T11:20:57.413Z,29.96
2023-09-16T11:23:25.514Z,29.74
2023-09-16T11:25:52.006Z,30.14
2023-09-16T11:28:19.907Z,30.28
2023-09-16T11:30:57.379Z,30.37
2023-09-16T11:33:35.630Z,30.33
2023-09-16T11:36:17.054Z,30.50
2023-09-16T11:39:12.981Z,30.39
2023-09-16T11:41:39.520Z,30.25
2023-09-16T11:44:08.055Z,30.25
2023-09-16T11:46:35.679Z,30.21
2023-09-16T11:49:06.595Z,30.26
2023-09-16T11:51:37.492Z,30.29
2023-09-16T11:54:05.723Z,30.25
2023-09-16T11:56:36.819Z,30.32
2023-09-16T11:59:05.440Z,30.42
2023-09-16T12:01:34.266Z,30.18
2023-09-16T12:04:04.984Z,30.24
2023-09-16T12:06:33.544Z,30.19
2023-09-16T12:09:00.500Z,30.59
2023-09-16T12:11:28.434Z,30.70
2023-09-16T12:13:55.970Z,30.25
2023-09-16T12:16:23.740Z,30.65
2023-09-16T12:18:50.560Z,30.76
2023-09-16T12:21:17.428Z,30.74
2023-09-16T12:23:46.479Z,30.92
2023-09-16T12:26:13.682Z,30.88
2023-09-16T12:28:41.105Z,30.49
2023-09-16T12:31:10.673Z,30.61
2023-09-16T12:33:49.447Z,31.13
2023-09-16T12:36:27.775Z,31.14
2023-09-16T12:38:55.860Z,31.06
2023-09-16T12:41:23.256Z,30.86
2023-09-16T12:43:50.956Z,31.02
2023-09-16T12:46:21.697Z,31.14
2023-09-16T12:48:50.947Z,31.03
2023-09-16T12:51:22.234Z,30.76
2023-09-16T12:53:53.529Z,30.99
2023-09-16T12:56:20.233Z,30.90
2023-09-16T12:58:49.417Z,30.59
2023-09-16T13:01:20.799Z,31.01
2023-09-16T13:03:47.990Z,31.00
2023-09-16T13:06:14.896Z,30.91
2023-09-16T13:08:42.397Z,31.16
2023-09-16T13:11:10.647Z,31.17
2023-09-16T13:13:37.448Z,31.25
2023-09-16T13:16:07.944Z,31.22
2023-09-16T13:18:38.810Z,31.27
2023-09-16T13:21:05.878Z,31.38
2023-09-16T13:23:33.925Z,31.40
2023-09-16T13:26:15.071Z,31.47
2023-09-16T13:28:56.181Z,31.51
2023-09-16T13:31:25.148Z,31.37
2023-09-16T13:34:01.621Z,31.52
2023-09-16T13:36:34.480Z,31.37
2023-09-16T13:39:04.477Z,31.52
2023-09-16T13:41:31.417Z,31.48
2023-09-16T13:43:57.981Z,31.46
2023-09-16T13:46:26.384Z,31.55
2023-09-16T13:48:55.831Z,31.22
2023-09-16T13:51:22.540Z,31.86
2023-09-16T13:53:49.303Z,31.51
2023-09-16T13:56:15.838Z,31.44
2023-09-16T13:58:42.607Z,31.48
2023-09-16T14:01:09.174Z,31.41
2023-09-16T14:03:35.961Z,31.55
2023-09-16T14:06:02.587Z,31.22
2023-09-16T14:08:29.131Z,31.42
2023-09-16T14:10:55.615Z,31.64
2023-09-16T14:13:22.511Z,31.66
2023-09-16T14:15:49.142Z,31.78
2023-09-16T14:18:15.870Z,31.80
2023-09-16T14:20:42.426Z,31.86
2023-09-16T14:23:08.990Z,31.95
2023-09-16T14:25:35.752Z,31.93
2023-09-16T14:28:04.272Z,32.02
2023-09-16T14:30:32.936Z,31.95
2023-09-16T14:32:59.965Z,32.06
2023-09-16T14:35:26.541Z,32.06
2023-09-16T14:37:54.786Z,32.09
2023-09-16T14:40:21.905Z,32.10
2023-09-16T14:42:48.468Z,32.08
2023-09-16T14:45:15.031Z,31.84
2023-09-16T14:47:44.132Z,32.13
2023-09-16T14:50:12.811Z,32.12
2023-09-16T14:52:41.636Z,32.13
2023-09-16T14:55:10.871Z,32.10
2023-09-16T14:57:38.441Z,32.02
2023-09-16T15:00:09.583Z,31.96
2023-09-16T15:02:39.850Z,31.90
2023-09-16T15:05:08.416Z,31.90
2023-09-16T15:07:35.741Z,31.88
2023-09-16T15:10:02.673Z,31.77
2023-09-16T15:12:29.436Z,31.66
2023-09-16T15:14:55.931Z,31.59
2023-09-16T15:17:22.441Z,31.56
2023-09-16T15:19:48.888Z,31.52
2023-09-16T15:22:15.770Z,31.42
2023-09-16T15:24:42.527Z,31.27
2023-09-16T15:27:08.981Z,31.17
2023-09-16T15:29:35.641Z,31.13
2023-09-16T15:32:29.641Z,31.05
2023-09-16T15:34:48.737Z,30.95
2023-09-16T15:37:15.866Z,30.93
2023-09-16T15:39:42.363Z,30.84
2023-09-16T15:42:08.814Z,30.38
2023-09-16T15:44:35.283Z,30.74
2023-09-16T15:47:02.688Z,30.63
2023-09-16T15:49:30.536Z,30.78
2023-09-16T15:51:57.216Z,30.77
2023-09-16T15:54:26.065Z,30.89
2023-09-16T15:56:53.008Z,30.90
2023-09-16T15:59:19.566Z,30.87
2023-09-16T16:01:46.096Z,30.86
2023-09-16T16:04:12.755Z,30.89
2023-09-16T16:06:39.213Z,30.85
2023-09-16T16:09:05.841Z,30.85
2023-09-16T16:11:32.310Z,30.81
2023-09-16T16:13:58.825Z,30.76
2023-09-16T16:16:25.472Z,30.42
2023-09-16T16:18:53.749Z,30.61
2023-09-16T16:21:20.844Z,30.32
2023-09-16T16:23:47.330Z,30.48
2023-09-16T16:26:15.791Z,30.29
2023-09-16T16:28:42.262Z,30.32
2023-09-16T16:31:09.979Z,30.26
2023-09-16T16:33:36.625Z,30.18
2023-09-16T16:36:04.272Z,30.04
2023-09-16T16:38:31.142Z,29.68
2023-09-16T16:40:57.990Z,29.71
2023-09-16T16:43:24.984Z,29.41
2023-09-16T16:45:52.116Z,29.26
2023-09-16T16:48:18.809Z,28.72
2023-09-16T16:50:45.660Z,28.63
2023-09-16T16:53:12.134Z,28.39
2023-09-16T16:55:38.607Z,28.15
2023-09-16T16:58:05.176Z,27.88
2023-09-16T17:00:32.153Z,27.60
2023-09-16T17:02:58.717Z,27.33
2023-09-16T17:05:27.305Z,26.80
2023-09-16T17:07:57.532Z,26.83
2023-09-16T17:10:24.696Z,26.31
2023-09-16T17:12:51.257Z,26.30
2023-09-16T17:15:17.706Z,26.07
2023-09-16T17:17:44.275Z,25.85
2023-09-16T17:20:11.086Z,25.63
2023-09-16T17:22:37.665Z,25.30
2023-09-16T17:25:05.635Z,25.22
2023-09-16T17:27:32.483Z,25.04
2023-09-16T17:29:59.584Z,24.86
2023-09-16T17:32:26.151Z,24.68
2023-09-16T17:34:52.647Z,24.53
2023-09-16T17:37:19.546Z,24.36
2023-09-16T17:39:46.044Z,23.95
2023-09-16T17:42:12.537Z,24.04
2023-09-16T17:44:39.639Z,23.88
2023-09-16T17:47:06.138Z,23.58
2023-09-16T17:49:33.198Z,23.58
2023-09-16T17:52:00.172Z,23.50
2023-09-16T17:54:27.218Z,23.36
2023-09-16T17:56:53.772Z,23.26
2023-09-16T17:59:20.277Z,23.07
2023-09-16T18:01:47.169Z,22.78
2023-09-16T18:04:13.802Z,22.57
2023-09-16T18:06:41.973Z,22.95
2023-09-16T18:09:11.060Z,22.88
2023-09-16T18:11:37.703Z,22.57
2023-09-16T18:14:04.492Z,22.65
2023-09-16T18:16:32.834Z,22.74
2023-09-16T18:18:59.560Z,22.51
2023-09-16T18:21:26.049Z,22.61
2023-09-16T18:23:52.634Z,22.73
2023-09-16T18:26:19.529Z,22.54
2023-09-16T18:28:46.012Z,22.53
2023-09-16T18:31:14.457Z,22.37
2023-09-16T18:33:41.013Z,22.71
2023-09-16T18:36:07.531Z,22.69
2023-09-16T18:38:34.077Z,22.39
2023-09-16T18:41:00.589Z,22.31
2023-09-16T18:43:27.223Z,22.34
2023-09-16T18:45:53.796Z,22.51
2023-09-16T18:48:21.119Z,22.51
2023-09-16T18:50:47.694Z,22.48
2023-09-16T18:53:14.295Z,22.43
2023-09-16T18:55:45.648Z,22.24
2023-09-16T18:58:13.649Z,22.25
2023-09-16T19:00:41.193Z,22.34
2023-09-16T19:03:08.869Z,22.29
2023-09-16T19:05:39.868Z,22.07
2023-09-16T19:08:07.557Z,22.23
2023-09-16T19:10:34.441Z,22.19
2023-09-16T19:13:01.118Z,21.99
2023-09-16T19:15:30.596Z,22.15
2023-09-16T19:17:57.255Z,22.15
2023-09-16T19:20:24.001Z,22.12
2023-09-16T19:22:50.654Z,21.79
2023-09-16T19:25:17.723Z,22.09
2023-09-16T19:27:44.513Z,22.07
2023-09-16T19:30:11.369Z,22.05
2023-09-16T19:32:39.607Z,21.85
2023-09-16T19:35:06.781Z,22.01
2023-09-16T19:37:33.274Z,21.59
2023-09-16T19:40:02.395Z,21.91
2023-09-16T19:42:29.488Z,21.84
2023-09-16T19:44:56.065Z,21.85
2023-09-16T19:47:25.363Z,21.75
2023-09-16T19:49:53.491Z,21.57
2023-09-16T19:52:20.704Z,21.72
2023-09-16T19:54:47.324Z,21.61
2023-09-16T19:57:14.145Z,21.65
2023-09-16T19:59:40.711Z,21.61
2023-09-16T20:02:07.262Z,21.55
2023-09-16T20:04:33.869Z,21.53
2023-09-16T20:07:00.738Z,21.42
2023-09-16T20:09:28.137Z,21.31
2023-09-16T20:11:54.642Z,21.40
2023-09-16T20:14:21.088Z,21.44
2023-09-16T20:16:47.780Z,21.40
2023-09-16T20:19:18.645Z,21.36
2023-09-16T20:21:46.509Z,21.30
2023-09-16T20:24:13.317Z,21.01
2023-09-16T20:26:40.271Z,20.91
2023-09-16T20:29:06.886Z,21.15
2023-09-16T20:31:34.000Z,21.09
2023-09-16T20:34:11.019Z,21.02
2023-09-16T20:36:42.085Z,20.91
2023-09-16T20:39:08.530Z,20.85
2023-09-16T20:41:34.940Z,20.62
2023-09-16T20:44:02.781Z,20.28
2023-09-16T20:46:29.968Z,20.40
2023-09-16T20:48:56.551Z,20.33
2023-09-16T20:51:23.024Z,20.23
2023-09-16T20:53:49.747Z,20.33
2023-09-16T20:56:16.568Z,20.34
2023-09-16T20:58:44.017Z,20.27
2023-09-16T21:01:10.813Z,20.19
2023-09-16T21:03:37.747Z,20.07
2023-09-16T21:06:04.842Z,19.84
2023-09-16T21:08:31.318Z,19.93
2023-09-16T21:10:57.920Z,19.62
2023-09-16T21:13:24.435Z,19.82
2023-09-16T21:15:51.584Z,19.49
2023-09-16T21:18:18.228Z,19.81
2023-09-16T21:20:44.718Z,19.68
2023-09-16T21:23:11.208Z,19.59
2023-09-16T21:25:39.876Z,19.70
2023-09-16T21:28:07.649Z,19.41
2023-09-16T21:30:34.395Z,19.36
2023-09-16T21:33:01.163Z,19.35
2023-09-16T21:35:29.737Z,19.06
2023-09-16T21:37:56.348Z,19.50
2023-09-16T21:40:24.114Z,19.33
2023-09-16T21:42:51.915Z,18.92
2023-09-16T21:45:18.763Z,19.13
2023-09-16T21:47:45.221Z,19.33
2023-09-16T21:50:12.632Z,19.27
2023-09-16T21:52:39.113Z,19.15
2023-09-16T21:55:06.120Z,18.91
2023-09-16T21:57:32.697Z,18.89
2023-09-16T21:59:59.150Z,18.87
2023-09-16T22:02:25.739Z,18.87
2023-09-16T22:04:52.363Z,18.76
2023-09-16T22:07:18.896Z,18.88
2023-09-16T22:09:46.739Z,18.82
2023-09-16T22:12:13.442Z,18.82
2023-09-16T22:14:39.980Z,18.80
2023-09-16T22:17:06.438Z,18.77
2023-09-16T22:19:32.942Z,18.54
2023-09-16T22:21:59.617Z,18.59
2023-09-16T22:24:26.140Z,18.44
2023-09-16T22:26:52.745Z,18.24
2023-09-16T22:29:19.188Z,18.30
2023-09-16T22:31:45.762Z,18.42
2023-09-16T22:34:13.101Z,18.56
2023-09-16T22:36:39.775Z,18.53
2023-09-16T22:39:06.262Z,18.51
2023-09-16T22:41:32.803Z,18.47
2023-09-16T22:43:59.401Z,17.98
2023-09-16T22:46:26.007Z,18.35
2023-09-16T22:48:52.589Z,18.25
2023-09-16T22:51:19.129Z,18.27
2023-09-16T22:53:45.641Z,18.12
2023-09-16T22:56:12.192Z,17.59
2023-09-16T22:58:39.650Z,18.08
2023-09-16T23:01:08.344Z,17.85
2023-09-16T23:03:34.989Z,18.08
2023-09-16T23:06:02.080Z,18.00
2023-09-16T23:08:29.441Z,17.78
2023-09-16T23:10:55.939Z,17.65
2023-09-16T23:13:23.151Z,17.88
2023-09-16T23:15:50.084Z,17.67
2023-09-16T23:18:16.572Z,17.66
2023-09-16T23:20:43.337Z,17.66
2023-09-16T23:23:09.936Z,17.67
2023-09-16T23:25:36.438Z,17.36
2023-09-16T23:28:03.116Z,17.55
2023-09-16T23:30:29.714Z,17.21
2023-09-16T23:32:56.198Z,17.44
2023-09-16T23:35:22.631Z,17.45
2023-09-16T23:37:49.071Z,17.15
2023-09-16T23:40:15.851Z,17.29
2023-09-16T23:42:42.349Z,17.26
2023-09-16T23:45:09.180Z,17.26
2023-09-16T23:47:35.838Z,17.12
2023-09-16T23:50:02.421Z,17.28
2023-09-16T23:52:29.178Z,17.25
2023-09-16T23:54:55.695Z,17.21
2023-09-16T23:57:22.179Z,16.98
2023-09-16T23:59:48.680Z,16.98
